KMTO/MTO METAR and TAF weather

Enter ICAO airport designator
Station Type Date Time Source
KMTO METAR 2018/12/13 20:35 UTC NOAA

KMTO 132035Z AUTO 14009KT 4SM -RA BR OVC003 07/06 A3000 RMK AO2 RAB15 P0000 T00720061


Station Type Date Time Source
KMTO Decoded METAR 2018/12/13 20:35 UTC NOAA

MATTOON/CHARLESTON COLES CO, IL, United States (KMTO) 39-28N 88-16W 214M
Dec 13, 2018 - 03:35 PM EST / 2018.12.13 2035 UTC
Wind: from the SE (140 degrees) at 10 MPH (9 KT):0
Visibility: 4 mile(s):0
Sky conditions: overcast
Weather: light rain; mist
Precipitation last hour: A trace
Temperature: 45.0 F (7.2 C)
Dew Point: 43.0 F (6.1 C)
Relative Humidity: 92%
Pressure (altimeter): 30 in. Hg (1015 hPa)
ob: KMTO 132035Z AUTO 14009KT 4SM -RA BR OVC003 07/06 A3000 RMK AO2 RAB15 P0000 T00720061
cycle: 20

Station Type Date Time Source
KMTO TAF UTC NOAA

Error!


Example: see airport list